Time;durP1;ratioP1;P1;durP2;ratioP2;P2;SDS_P1;SDS_P2;PMS_P1;PMS_P2;Temp;Humidity;BMP_temperature;BMP_pressure;BME280_temperature;BME280_humidity;BME280_pressure;Samples;Min_cycle;Max_cycle;Signal;HPM_P1;HPM_P2
2020/12/16 00:00:22;;;;;;;12.50;6.10;;;15.50;45.60;;;;;;5073326;28;20487;-89
2020/12/16 00:02:48;;;;;;;9.63;6.13;;;15.70;45.40;;;;;;5073343;28;20448;-89
2020/12/16 00:05:15;;;;;;;7.13;5.37;;;15.50;45.50;;;;;;5073926;28;20451;-90
2020/12/16 00:07:42;;;;;;;8.40;6.30;;;15.60;45.50;;;;;;5073747;28;20928;-89
2020/12/16 00:10:11;;;;;;;8.70;6.27;;;15.60;45.30;;;;;;5073774;28;20476;-89
2020/12/16 00:12:38;;;;;;;8.93;6.33;;;15.70;45.10;;;;;;5073831;28;20472;-89
2020/12/16 00:15:06;;;;;;;9.30;6.10;;;15.70;45.00;;;;;;5074096;28;20473;-89
2020/12/16 00:17:33;;;;;;;11.07;7.13;;;15.60;44.30;;;;;;5073577;28;20817;-89
2020/12/16 00:19:59;;;;;;;10.40;6.87;;;15.40;44.60;;;;;;5073465;28;21053;-89
2020/12/16 00:22:26;;;;;;;8.03;6.10;;;15.40;44.80;;;;;;5073602;28;20802;-89
2020/12/16 00:24:52;;;;;;;7.43;5.70;;;15.10;44.10;;;;;;5073228;28;20463;-89
2020/12/16 00:27:20;;;;;;;7.83;5.33;;;14.90;45.20;;;;;;5073333;28;21002;-89
2020/12/16 00:29:46;;;;;;;10.23;6.13;;;14.90;46.00;;;;;;5073532;28;20497;-89
2020/12/16 00:32:13;;;;;;;6.43;5.30;;;15.10;45.60;;;;;;5073683;28;20573;-89
2020/12/16 00:34:39;;;;;;;6.57;5.50;;;15.00;45.90;;;;;;5073284;28;20552;-89
2020/12/16 00:37:06;;;;;;;6.43;5.20;;;14.90;45.80;;;;;;5073040;28;20448;-89
2020/12/16 00:39:32;;;;;;;8.27;5.97;;;15.00;46.00;;;;;;5073290;28;20501;-89
2020/12/16 00:41:59;;;;;;;7.77;5.50;;;15.10;45.80;;;;;;5073552;28;20485;-89
2020/12/16 00:44:26;;;;;;;5.73;4.63;;;15.30;45.60;;;;;;5074030;28;20439;-89
2020/12/16 00:46:53;;;;;;;7.97;6.00;;;15.20;45.00;;;;;;5072995;28;21051;-89
2020/12/16 00:49:19;;;;;;;9.60;5.17;;;14.90;45.20;;;;;;5072880;28;20439;-89
2020/12/16 00:51:46;;;;;;;7.40;5.60;;;14.80;45.70;;;;;;5073449;28;20454;-89
2020/12/16 00:54:12;;;;;;;6.17;5.10;;;15.00;45.60;;;;;;5073027;28;20482;-89
2020/12/16 00:56:43;;;;;;;7.20;5.70;;;15.00;45.40;;;;;;5073058;28;20505;-89
2020/12/16 00:59:09;;;;;;;8.43;5.50;;;14.90;45.70;;;;;;5072784;28;20889;-89
2020/12/16 01:01:37;;;;;;;8.90;6.03;;;14.90;45.60;;;;;;5072526;28;20450;-89
2020/12/16 01:04:03;;;;;;;39.87;6.73;;;14.50;42.90;;;;;;5072775;28;20443;-89
2020/12/16 01:06:30;;;;;;;28.30;6.10;;;12.40;44.60;;;;;;5072910;28;20445;-89
2020/12/16 01:08:56;;;;;;;43.70;6.60;;;11.10;49.30;;;;;;5073025;28;20447;-89
2020/12/16 01:11:23;;;;;;;10.83;5.57;;;11.10;50.60;;;;;;5072817;28;20468;-89
2020/12/16 01:13:49;;;;;;;23.73;7.20;;;11.70;51.10;;;;;;5072232;28;20482;-89
2020/12/16 01:16:16;;;;;;;16.33;5.10;;;11.60;48.60;;;;;;5072349;28;20446;-89
2020/12/16 01:18:43;;;;;;;26.53;6.23;;;12.00;49.30;;;;;;5072364;28;20447;-89
2020/12/16 01:21:10;;;;;;;28.90;5.93;;;11.50;49.00;;;;;;5072273;28;20460;-89
2020/12/16 01:23:37;;;;;;;58.67;6.83;;;11.10;51.10;;;;;;5072531;28;20427;-90
2020/12/16 01:26:03;;;;;;;17.30;5.87;;;11.50;50.40;;;;;;5072072;28;20507;-89
2020/12/16 01:28:30;;;;;;;19.03;5.27;;;12.20;51.50;;;;;;5073547;28;20950;-89
2020/12/16 01:30:56;;;;;;;27.93;5.60;;;12.70;49.00;;;;;;5076444;28;20497;-89
2020/12/16 01:33:24;;;;;;;27.90;5.50;;;12.80;48.50;;;;;;5076397;28;20475;-89
2020/12/16 01:35:51;;;;;;;6.60;4.97;;;12.40;47.30;;;;;;5076247;28;20466;-89
2020/12/16 01:38:18;;;;;;;8.77;5.17;;;12.30;49.20;;;;;;5075993;28;20438;-89
2020/12/16 01:40:44;;;;;;;18.23;5.80;;;12.80;49.40;;;;;;5076254;28;20458;-89
2020/12/16 01:43:11;;;;;;;31.20;6.40;;;12.70;45.70;;;;;;5076057;28;20439;-89
2020/12/16 01:45:37;;;;;;;16.73;5.43;;;12.40;46.10;;;;;;5076217;28;20431;-89
2020/12/16 01:48:03;;;;;;;28.43;5.67;;;12.50;49.10;;;;;;5076194;28;20820;-89
2020/12/16 01:50:30;;;;;;;11.80;6.10;;;12.60;47.40;;;;;;5076405;28;20487;-89
2020/12/16 01:53:00;;;;;;;20.30;6.83;;;11.90;48.40;;;;;;5075891;28;20479;-89
2020/12/16 01:55:26;;;;;;;18.17;6.57;;;11.60;50.00;;;;;;5075898;28;20424;-89
2020/12/16 01:57:59;;;;;;;52.57;8.00;;;11.40;50.00;;;;;;5075622;28;20447;-89
2020/12/16 02:00:27;;;;;;;28.00;7.00;;;11.30;50.20;;;;;;5076189;28;20509;-89
2020/12/16 02:02:56;;;;;;;64.23;7.40;;;10.40;51.60;;;;;;5075545;28;20456;-89
2020/12/16 02:05:25;;;;;;;46.27;8.27;;;10.30;52.40;;;;;;5075890;28;20469;-89
2020/12/16 02:07:53;;;;;;;45.60;8.73;;;10.50;52.20;;;;;;5076943;28;20447;-89
2020/12/16 02:10:21;;;;;;;33.60;8.30;;;10.50;51.90;;;;;;5076908;28;20547;-89
2020/12/16 02:12:47;;;;;;;34.00;8.07;;;10.40;52.30;;;;;;5077111;28;21069;-89
2020/12/16 02:15:14;;;;;;;51.50;7.93;;;11.20;51.30;;;;;;5076605;28;20585;-88
2020/12/16 02:17:40;;;;;;;40.70;6.27;;;11.50;51.70;;;;;;5076370;28;20517;-89
2020/12/16 02:20:08;;;;;;;29.33;7.03;;;12.20;50.80;;;;;;5075529;28;20938;-90
2020/12/16 02:22:36;;;;;;;16.37;6.70;;;12.10;49.50;;;;;;5075681;28;20443;-89
2020/12/16 02:25:05;;;;;;;8.40;5.87;;;12.40;50.40;;;;;;5075333;28;20502;-89
2020/12/16 02:27:32;;;;;;;15.53;5.70;;;12.90;49.60;;;;;;5074654;28;20910;-88
2020/12/16 02:29:59;;;;;;;26.27;6.37;;;13.40;48.50;;;;;;5079426;28;20470;-89
2020/12/16 02:32:27;;;;;;;33.67;7.00;;;13.20;47.20;;;;;;5075641;28;20564;-89
2020/12/16 02:34:54;;;;;;;48.83;6.63;;;12.90;47.50;;;;;;5075280;28;20892;-89
2020/12/16 02:37:21;;;;;;;35.30;6.50;;;12.20;48.20;;;;;;5075440;28;20447;-89
2020/12/16 02:39:48;;;;;;;11.97;6.80;;;12.20;48.90;;;;;;5074761;28;20517;-89
2020/12/16 02:42:20;;;;;;;36.73;10.20;;;12.50;49.30;;;;;;5075091;28;20474;-88
2020/12/16 02:44:46;;;;;;;14.80;7.50;;;12.50;48.00;;;;;;5075245;28;20486;-87
2020/12/16 02:47:13;;;;;;;46.17;7.63;;;12.30;48.30;;;;;;5074151;28;20522;-87
2020/12/16 02:49:39;;;;;;;19.40;8.03;;;12.10;48.60;;;;;;5075262;28;20843;-87
2020/12/16 02:52:06;;;;;;;28.43;8.33;;;11.50;48.60;;;;;;5073970;28;20433;-86
2020/12/16 02:54:33;;;;;;;43.77;8.57;;;10.90;50.40;;;;;;5074341;28;20434;-87
2020/12/16 02:56:59;;;;;;;47.83;7.93;;;11.10;50.60;;;;;;5075398;28;20451;-87
2020/12/16 02:59:28;;;;;;;20.90;6.63;;;11.30;51.10;;;;;;5075023;28;20593;-90
2020/12/16 03:01:56;;;;;;;23.13;8.50;;;12.00;51.40;;;;;;5077178;28;20464;-88
2020/12/16 03:04:24;;;;;;;37.33;8.70;;;12.30;49.00;;;;;;5075735;28;20528;-87
2020/12/16 03:06:51;;;;;;;23.17;9.03;;;12.60;50.00;;;;;;5075155;28;20448;-87
2020/12/16 03:09:19;;;;;;;53.00;8.37;;;13.00;49.20;;;;;;5073471;28;20456;-87
2020/12/16 03:11:50;;;;;;;10.60;6.20;;;13.40;49.10;;;;;;5073481;28;20481;-87
2020/12/16 03:14:16;;;;;;;14.63;6.03;;;13.60;47.00;;;;;;5074525;28;20459;-87
2020/12/16 03:16:44;;;;;;;35.33;6.13;;;13.70;47.00;;;;;;5074626;28;20451;-87
2020/12/16 03:19:10;;;;;;;31.13;7.10;;;13.90;47.80;;;;;;5074536;28;20481;-87
2020/12/16 03:21:37;;;;;;;9.43;5.93;;;13.80;46.10;;;;;;5076114;28;20447;-87
2020/12/16 03:24:04;;;;;;;59.13;8.17;;;13.50;47.80;;;;;;5098664;28;20438;-83
2020/12/16 03:26:30;;;;;;;88.07;8.60;;;12.80;47.60;;;;;;5087669;28;20424;-83
2020/12/16 03:28:56;;;;;;;41.53;7.83;;;12.20;48.50;;;;;;5098890;28;20453;-84
2020/12/16 03:31:23;;;;;;;22.87;7.83;;;11.90;49.80;;;;;;5097516;28;20452;-84
2020/12/16 03:33:50;;;;;;;19.30;7.07;;;12.20;50.40;;;;;;5098495;28;20481;-85
2020/12/16 03:36:18;;;;;;;16.03;6.53;;;12.30;48.80;;;;;;5084936;28;20442;-87
2020/12/16 03:42:07;;;;;;;59.83;8.80;;;12.90;47.70;;;;;;5076432;28;20371;-87
2020/12/16 03:44:34;;;;;;;27.73;8.70;;;12.40;47.90;;;;;;5074163;28;20454;-86
2020/12/16 03:47:00;;;;;;;55.17;9.10;;;12.20;48.30;;;;;;5074116;28;20481;-87
2020/12/16 03:49:27;;;;;;;27.93;8.67;;;11.80;49.20;;;;;;5074107;28;20463;-87
2020/12/16 03:51:56;;;;;;;56.07;7.47;;;11.50;49.90;;;;;;5074167;28;20526;-87
2020/12/16 03:54:22;;;;;;;25.77;8.53;;;11.50;49.60;;;;;;5074529;28;21014;-87
2020/12/16 03:56:49;;;;;;;11.60;6.30;;;11.20;50.70;;;;;;5075806;28;20480;-87
2020/12/16 03:59:16;;;;;;;31.50;9.40;;;12.10;51.50;;;;;;5074758;28;20456;-87
2020/12/16 04:01:42;;;;;;;46.47;8.00;;;11.70;48.80;;;;;;5076050;28;20538;-87
2020/12/16 04:04:09;;;;;;;27.80;9.33;;;11.30;50.80;;;;;;5076027;28;20522;-87
2020/12/16 04:06:37;;;;;;;25.13;8.17;;;11.30;50.80;;;;;;5077165;28;20456;-87
2020/12/16 04:09:04;;;;;;;15.50;8.70;;;11.70;49.20;;;;;;5077681;28;20614;-86
2020/12/16 04:11:31;;;;;;;15.43;8.60;;;11.90;51.30;;;;;;5077241;28;20462;-87
2020/12/16 04:13:57;;;;;;;14.43;8.67;;;12.50;49.80;;;;;;5076481;28;20482;-87
2020/12/16 04:16:24;;;;;;;27.03;9.30;;;12.90;48.80;;;;;;5075787;28;20437;-87
2020/12/16 04:18:52;;;;;;;11.67;7.07;;;13.00;49.00;;;;;;5077597;28;20557;-87
2020/12/16 04:21:20;;;;;;;19.00;8.10;;;13.20;47.40;;;;;;5080895;28;20473;-87
2020/12/16 04:23:47;;;;;;;11.00;7.43;;;13.10;47.70;;;;;;5085572;28;20497;-87
2020/12/16 04:26:14;;;;;;;8.87;6.37;;;13.30;48.50;;;;;;5085587;28;20442;-86
2020/12/16 04:28:40;;;;;;;10.07;6.30;;;13.80;48.10;;;;;;5085951;28;20439;-85
2020/12/16 04:31:10;;;;;;;13.60;6.77;;;14.20;47.30;;;;;;5082868;28;20808;-87
2020/12/16 04:33:38;;;;;;;37.80;6.90;;;14.10;45.40;;;;;;5079961;28;20485;-86
2020/12/16 04:36:04;;;;;;;7.23;5.60;;;13.70;45.10;;;;;;5083642;28;20443;-87
2020/12/16 04:38:31;;;;;;;6.80;5.40;;;13.80;47.60;;;;;;5083936;28;20446;-88
2020/12/16 04:40:58;;;;;;;7.17;5.60;;;13.60;45.90;;;;;;5085164;28;20463;-87
2020/12/16 04:43:25;;;;;;;10.30;6.90;;;13.50;47.60;;;;;;5087489;28;20438;-87
2020/12/16 04:45:52;;;;;;;8.83;6.07;;;13.60;47.60;;;;;;5073350;28;20451;-90
2020/12/16 04:48:19;;;;;;;23.93;7.53;;;14.00;47.60;;;;;;5073267;28;20500;-87
2020/12/16 04:50:47;;;;;;;12.57;6.87;;;13.60;46.20;;;;;;5073404;28;20497;-88
2020/12/16 04:53:18;;;;;;;17.57;8.00;;;13.50;47.80;;;;;;5074057;28;20476;-90
2020/12/16 04:55:46;;;;;;;24.33;7.97;;;13.80;47.60;;;;;;5073013;28;20443;-90
2020/12/16 04:58:13;;;;;;;14.13;7.20;;;13.90;47.00;;;;;;5072973;28;20455;-89
2020/12/16 05:00:40;;;;;;;15.97;8.50;;;13.80;46.80;;;;;;5072808;28;20459;-90
2020/12/16 05:03:08;;;;;;;11.63;6.87;;;13.70;47.20;;;;;;5075289;28;20449;-89
2020/12/16 05:05:35;;;;;;;9.57;7.50;;;13.80;47.00;;;;;;5076364;28;20847;-89
2020/12/16 05:08:09;;;;;;;18.93;8.27;;;14.00;46.70;;;;;;5076804;28;20542;-89
2020/12/16 05:10:38;;;;;;;33.90;8.00;;;14.00;46.40;;;;;;5076780;28;21010;-89
2020/12/16 05:13:07;;;;;;;13.40;7.50;;;14.00;46.70;;;;;;5076871;28;20473;-90
2020/12/16 05:15:35;;;;;;;14.93;7.10;;;14.10;46.60;;;;;;5076188;28;20558;-89
2020/12/16 05:18:13;;;;;;;17.87;7.00;;;13.90;46.10;;;;;;5076763;28;20815;-88
2020/12/16 05:20:42;;;;;;;11.20;7.13;;;14.00;44.70;;;;;;5077226;28;20890;-90
2020/12/16 05:23:09;;;;;;;17.77;8.33;;;13.80;45.60;;;;;;5077005;28;20450;-90
2020/12/16 05:25:37;;;;;;;18.90;7.70;;;13.80;45.00;;;;;;5076934;28;20454;-89
2020/12/16 05:28:04;;;;;;;16.77;7.23;;;13.80;45.80;;;;;;5077097;28;20465;-89
2020/12/16 05:30:31;;;;;;;32.40;8.17;;;13.90;46.50;;;;;;5076826;28;20480;-88
2020/12/16 05:33:02;;;;;;;24.03;7.23;;;13.60;45.20;;;;;;5076273;28;20543;-90
2020/12/16 05:35:30;;;;;;;37.67;7.33;;;13.40;46.60;;;;;;5076450;28;20916;-90
2020/12/16 05:38:01;;;;;;;9.03;5.90;;;12.60;46.60;;;;;;5076414;28;20817;-89
2020/12/16 05:40:30;;;;;;;13.23;6.63;;;12.60;49.10;;;;;;5075837;28;20507;-89
2020/12/16 05:42:57;;;;;;;106.97;10.33;;;13.00;48.90;;;;;;5076548;28;20799;-89
2020/12/16 05:45:26;;;;;;;75.60;9.63;;;12.50;46.40;;;;;;5077549;28;20491;-89
2020/12/16 05:48:05;;;;;;;78.17;10.07;;;11.70;48.70;;;;;;5076386;28;20480;-89
2020/12/16 05:50:35;;;;;;;74.47;11.03;;;11.50;50.40;;;;;;5074732;28;20548;-89
2020/12/16 05:53:26;;;;;;;84.67;11.50;;;11.00;49.90;;;;;;5076983;28;20526;-89
2020/12/16 05:55:54;;;;;;;131.67;10.37;;;10.60;50.10;;;;;;5056210;28;20458;-89
2020/12/16 05:58:23;;;;;;;95.47;10.97;;;10.40;50.70;;;;;;5076007;28;20845;-89
2020/12/16 06:00:52;;;;;;;54.23;10.23;;;10.60;50.80;;;;;;5076163;28;20462;-89
2020/12/16 06:03:25;;;;;;;54.93;10.03;;;10.10;52.00;;;;;;5076535;28;20462;-89
2020/12/16 06:05:54;;;;;;;102.07;11.10;;;9.80;54.20;;;;;;5076745;28;20423;-90
2020/12/16 06:08:22;;;;;;;59.63;10.50;;;10.60;51.90;;;;;;5076427;28;20477;-89
2020/12/16 06:10:50;;;;;;;90.40;11.53;;;10.40;52.10;;;;;;5077881;28;20906;-89
2020/12/16 06:13:18;;;;;;;69.70;10.00;;;10.00;51.10;;;;;;5081688;28;20608;-89
2020/12/16 06:15:58;;;;;;;71.07;10.90;;;9.30;54.70;;;;;;5076062;28;20960;-89
2020/12/16 06:18:28;;;;;;;84.90;11.27;;;9.10;56.60;;;;;;5076695;28;20447;-89
2020/12/16 06:20:55;;;;;;;108.83;10.70;;;9.10;55.70;;;;;;5076027;28;20495;-88
2020/12/16 06:23:24;;;;;;;102.73;12.40;;;9.20;57.40;;;;;;5076066;28;20447;-89
2020/12/16 06:25:52;;;;;;;92.30;12.03;;;8.70;57.40;;;;;;5075812;28;20486;-89
2020/12/16 06:28:19;;;;;;;41.33;10.17;;;8.60;57.70;;;;;;5077303;28;20524;-89
2020/12/16 06:31:00;;;;;;;79.10;11.63;;;8.60;59.20;;;;;;5076262;28;20474;-89
2020/12/16 06:33:43;;;;;;;58.77;11.07;;;9.10;56.90;;;;;;5076693;28;20463;-89
2020/12/16 06:36:10;;;;;;;44.87;11.50;;;9.30;58.00;;;;;;5075274;28;20849;-89
2020/12/16 06:38:43;;;;;;;90.63;12.50;;;9.60;55.50;;;;;;5075742;28;20454;-90
2020/12/16 06:41:18;;;;;;;43.53;11.03;;;9.90;55.40;;;;;;5076532;28;20503;-89
2020/12/16 06:43:45;;;;;;;27.17;11.07;;;9.90;55.10;;;;;;5077052;28;20423;-90
2020/12/16 06:46:41;;;;;;;41.73;11.00;;;10.20;53.30;;;;;;5077329;28;20454;-89
2020/12/16 06:49:24;;;;;;;22.70;11.30;;;10.80;51.90;;;;;;5079748;28;20424;-89
2020/12/16 06:51:52;;;;;;;18.87;9.10;;;11.10;52.20;;;;;;5079439;28;20420;-89
2020/12/16 06:54:20;;;;;;;31.67;10.40;;;11.50;52.40;;;;;;5078021;28;20472;-89
2020/12/16 06:56:48;;;;;;;16.50;10.10;;;11.60;50.30;;;;;;5076061;28;20476;-90
2020/12/16 06:59:35;;;;;;;13.43;8.87;;;11.50;50.90;;;;;;5076033;28;20442;-89
2020/12/16 07:02:12;;;;;;;11.17;8.10;;;11.90;48.30;;;;;;5075847;28;20481;-90
2020/12/16 07:04:39;;;;;;;12.80;8.30;;;11.60;49.70;;;;;;5076065;28;20494;-89
2020/12/16 07:07:06;;;;;;;11.67;7.83;;;11.80;49.10;;;;;;5075925;28;20459;-89
2020/12/16 07:09:33;;;;;;;12.83;8.87;;;11.80;47.80;;;;;;5076341;28;20475;-89
2020/12/16 07:12:01;;;;;;;12.10;8.37;;;11.20;48.00;;;;;;5076149;28;20450;-89
2020/12/16 07:14:33;;;;;;;13.77;8.93;;;11.20;49.40;;;;;;5081109;28;20554;-89
2020/12/16 07:17:05;;;;;;;13.47;8.87;;;11.00;48.70;;;;;;5075354;28;20420;-88
2020/12/16 07:19:32;;;;;;;7.30;5.70;;;11.50;49.50;;;;;;5074788;28;20507;-89
2020/12/16 07:22:15;;;;;;;10.30;6.87;;;12.30;51.60;;;;;;5074789;28;20530;-89
2020/12/16 07:24:47;;;;;;;10.77;7.00;;;12.90;49.50;;;;;;5075580;28;20451;-89
2020/12/16 07:27:19;;;;;;;10.70;7.10;;;13.10;47.00;;;;;;5074894;28;20899;-89
2020/12/16 07:29:55;;;;;;;10.53;7.50;;;13.10;47.90;;;;;;5078735;28;20471;-89
2020/12/16 07:32:23;;;;;;;9.47;6.90;;;13.20;45.00;;;;;;5074679;28;20445;-89
2020/12/16 07:34:52;;;;;;;9.37;6.50;;;13.00;47.10;;;;;;5074697;28;20542;-89
2020/12/16 07:37:22;;;;;;;46.53;24.03;;;13.20;48.60;;;;;;5074656;28;20817;-90
2020/12/16 07:39:50;;;;;;;12.30;7.63;;;13.70;48.00;;;;;;5074779;28;20544;-89
2020/12/16 07:42:26;;;;;;;9.47;6.60;;;14.00;47.80;;;;;;5074591;28;20447;-87
2020/12/16 07:44:53;;;;;;;19.90;6.90;;;14.00;47.10;;;;;;5074668;28;20940;-88
2020/12/16 07:47:20;;;;;;;12.67;7.23;;;14.10;47.10;;;;;;5074602;28;20451;-88
2020/12/16 07:49:47;;;;;;;8.70;6.50;;;14.20;45.50;;;;;;5074382;28;20875;-89
2020/12/16 07:52:14;;;;;;;10.03;7.27;;;13.70;45.40;;;;;;5074571;28;20529;-89
2020/12/16 07:54:41;;;;;;;8.47;6.30;;;13.20;45.70;;;;;;5074646;28;20483;-88
2020/12/16 07:57:08;;;;;;;10.53;7.50;;;13.20;47.40;;;;;;5074646;28;20524;-87
2020/12/16 07:59:36;;;;;;;13.83;7.50;;;13.40;45.50;;;;;;5074328;28;20469;-87
2020/12/16 08:02:08;;;;;;;11.33;7.67;;;13.70;46.40;;;;;;5074355;28;20475;-87
2020/12/16 08:04:35;;;;;;;12.60;8.03;;;13.70;46.50;;;;;;5073855;28;20979;-87
2020/12/16 08:07:16;;;;;;;13.07;8.03;;;13.20;45.50;;;;;;5074034;28;20782;-87
2020/12/16 08:09:54;;;;;;;13.33;7.97;;;12.90;46.60;;;;;;5074448;28;20467;-87
2020/12/16 08:12:21;;;;;;;13.10;8.90;;;13.00;47.40;;;;;;5073759;28;20444;-87
2020/12/16 08:14:48;;;;;;;12.03;7.90;;;13.30;45.90;;;;;;5073905;28;20470;-87
2020/12/16 08:17:15;;;;;;;13.00;8.60;;;12.80;45.10;;;;;;5073795;28;21004;-87
2020/12/16 08:19:42;;;;;;;11.20;7.30;;;12.60;45.90;;;;;;5074141;28;20477;-87
2020/12/16 08:22:12;;;;;;;12.20;8.50;;;12.70;48.30;;;;;;5073768;28;20950;-87
2020/12/16 08:24:39;;;;;;;8.40;6.63;;;12.60;45.40;;;;;;5074050;28;20476;-86
2020/12/16 08:27:07;;;;;;;11.17;7.50;;;12.90;48.40;;;;;;5074207;28;20448;-89
2020/12/16 08:29:36;;;;;;;12.63;8.00;;;13.20;47.90;;;;;;5074904;28;20957;-88
2020/12/16 08:32:05;;;;;;;14.00;8.40;;;13.40;45.80;;;;;;5074285;28;20438;-89
2020/12/16 08:34:40;;;;;;;11.60;7.53;;;13.60;47.00;;;;;;5073949;28;20470;-89
2020/12/16 08:37:11;;;;;;;11.50;8.00;;;13.90;46.80;;;;;;5076471;28;20787;-89
2020/12/16 08:39:43;;;;;;;13.33;8.43;;;13.90;44.90;;;;;;5085256;28;20546;-88
2020/12/16 08:42:12;;;;;;;13.10;7.60;;;13.60;45.30;;;;;;5097439;28;20443;-88
2020/12/16 08:44:39;;;;;;;28.37;6.70;;;13.10;47.50;;;;;;5096765;28;20441;-87
2020/12/16 08:47:05;;;;;;;9.93;7.00;;;13.30;47.80;;;;;;5097763;28;20443;-87
2020/12/16 08:49:32;;;;;;;9.80;6.90;;;13.60;47.30;;;;;;5093249;28;20516;-89
2020/12/16 08:51:59;;;;;;;19.10;6.57;;;14.00;46.60;;;;;;5074848;28;20517;-89
2020/12/16 08:54:27;;;;;;;17.33;6.90;;;14.10;46.30;;;;;;5079772;28;20482;-88
2020/12/16 08:56:55;;;;;;;12.63;7.93;;;14.10;46.30;;;;;;5074722;28;20858;-88
2020/12/16 08:59:26;;;;;;;19.43;9.60;;;14.00;45.00;;;;;;5074933;28;20467;-88
2020/12/16 09:01:53;;;;;;;12.30;7.90;;;14.10;45.90;;;;;;5076354;28;20407;-89
2020/12/16 09:04:25;;;;;;;21.13;12.43;;;13.90;46.30;;;;;;5074848;28;20443;-89
2020/12/16 09:06:59;;;;;;;15.90;9.77;;;13.50;44.40;;;;;;5073592;28;20798;-89
2020/12/16 09:09:26;;;;;;;16.93;11.10;;;13.20;47.10;;;;;;5073482;28;20480;-88
2020/12/16 09:11:53;;;;;;;12.33;8.57;;;13.40;46.50;;;;;;5073981;28;20473;-89
2020/12/16 09:14:20;;;;;;;13.77;8.87;;;13.20;47.10;;;;;;5075811;28;21073;-89
2020/12/16 09:16:48;;;;;;;14.67;8.60;;;13.80;47.80;;;;;;5077542;28;20439;-89
2020/12/16 09:19:19;;;;;;;10.37;7.53;;;14.30;47.00;;;;;;5077451;28;20450;-88
2020/12/16 09:21:46;;;;;;;12.20;8.40;;;14.60;46.50;;;;;;5077919;28;20443;-89
2020/12/16 09:24:13;;;;;;;14.23;10.10;;;14.60;46.00;;;;;;5076604;28;20458;-89
2020/12/16 09:26:43;;;;;;;12.77;8.90;;;14.80;45.80;;;;;;5077857;28;20451;-89
2020/12/16 09:29:22;;;;;;;18.20;10.70;;;14.70;45.90;;;;;;5077018;28;20447;-88
2020/12/16 09:31:50;;;;;;;12.43;8.60;;;14.90;43.90;;;;;;5077672;28;20440;-89
2020/12/16 09:34:18;;;;;;;10.60;7.50;;;14.50;45.20;;;;;;5078172;28;20475;-89
2020/12/16 09:36:45;;;;;;;9.87;7.30;;;14.50;46.00;;;;;;5077305;28;20458;-88
2020/12/16 09:39:12;;;;;;;15.53;9.27;;;14.60;46.30;;;;;;5076851;28;20451;-88
2020/12/16 09:41:43;;;;;;;14.80;9.30;;;14.60;45.60;;;;;;5085443;28;20447;-89
2020/12/16 09:44:23;;;;;;;13.70;8.63;;;14.60;45.90;;;;;;5087018;28;20447;-89
2020/12/16 09:46:51;;;;;;;19.70;10.47;;;14.90;46.10;;;;;;5089587;28;20455;-87
2020/12/16 09:49:19;;;;;;;13.70;9.37;;;15.10;43.90;;;;;;5083286;28;20436;-89
2020/12/16 09:51:46;;;;;;;14.00;8.37;;;15.00;45.10;;;;;;5086388;28;20447;-88
2020/12/16 09:54:27;;;;;;;18.90;10.00;;;15.20;45.10;;;;;;5088790;28;20482;-89
2020/12/16 09:56:54;;;;;;;15.93;8.43;;;14.60;45.00;;;;;;5089835;28;20427;-89
2020/12/16 09:59:20;;;;;;;11.63;7.73;;;14.60;45.70;;;;;;5094264;28;20423;-86
2020/12/16 10:01:50;;;;;;;15.93;10.40;;;14.80;45.90;;;;;;5081889;28;20470;-89
2020/12/16 10:04:16;;;;;;;13.60;9.57;;;14.70;44.80;;;;;;5076300;28;20447;-88
2020/12/16 10:06:43;;;;;;;15.87;10.30;;;14.30;45.90;;;;;;5076055;28;20459;-89
2020/12/16 10:09:09;;;;;;;22.63;10.40;;;14.60;46.40;;;;;;5077154;28;20427;-88
2020/12/16 10:11:37;;;;;;;16.53;8.23;;;14.70;45.80;;;;;;5076353;28;20577;-88
2020/12/16 10:14:04;;;;;;;19.47;11.40;;;14.70;46.30;;;;;;5080916;28;20494;-88
2020/12/16 10:16:32;;;;;;;17.87;11.57;;;14.50;45.70;;;;;;5079758;28;20439;-89
2020/12/16 10:19:00;;;;;;;19.60;10.87;;;14.20;46.80;;;;;;5076309;28;20453;-88
2020/12/16 10:21:26;;;;;;;15.97;10.43;;;14.20;46.40;;;;;;5076977;28;20472;-88
2020/12/16 10:23:53;;;;;;;18.70;11.07;;;13.70;47.00;;;;;;5093368;28;20489;-88
2020/12/16 10:26:19;;;;;;;17.70;10.60;;;14.10;47.90;;;;;;5093974;28;20427;-88
2020/12/16 10:28:46;;;;;;;18.30;11.80;;;14.30;47.00;;;;;;5090259;28;20439;-89
2020/12/16 10:31:12;;;;;;;12.43;8.93;;;14.30;46.60;;;;;;5081604;28;20463;-89
2020/12/16 10:33:38;;;;;;;15.07;9.17;;;14.40;47.30;;;;;;5075722;28;20479;-86
2020/12/16 10:36:06;;;;;;;13.40;8.47;;;14.60;46.80;;;;;;5075873;28;20428;-87
2020/12/16 10:38:32;;;;;;;13.57;9.10;;;14.90;47.00;;;;;;5075881;28;20769;-87
2020/12/16 10:40:59;;;;;;;10.70;7.13;;;15.30;46.20;;;;;;5075763;28;21069;-87
2020/12/16 10:43:25;;;;;;;15.60;8.97;;;15.50;45.80;;;;;;5075832;28;20501;-88
2020/12/16 10:45:52;;;;;;;8.93;6.53;;;15.60;45.10;;;;;;5075766;28;20448;-89
2020/12/16 10:48:18;;;;;;;13.80;8.30;;;15.80;45.20;;;;;;5075887;28;21015;-89
2020/12/16 10:50:45;;;;;;;8.40;5.60;;;15.70;44.80;;;;;;5075307;28;20877;-88
2020/12/16 10:53:12;;;;;;;16.00;9.77;;;15.90;45.20;;;;;;5075905;28;20444;-87
2020/12/16 10:55:38;;;;;;;9.53;6.60;;;16.10;44.40;;;;;;5077384;28;20964;-87
2020/12/16 10:58:06;;;;;;;14.63;9.67;;;16.10;44.80;;;;;;5075889;28;20801;-87
2020/12/16 11:00:32;;;;;;;13.90;9.20;;;16.00;44.70;;;;;;5074770;28;20463;-87
2020/12/16 11:02:59;;;;;;;17.40;8.90;;;15.90;44.80;;;;;;5075163;28;20457;-87
2020/12/16 11:05:25;;;;;;;10.37;7.70;;;15.90;45.00;;;;;;5076527;28;20433;-86
2020/12/16 11:07:52;;;;;;;11.07;7.17;;;15.90;45.10;;;;;;5087913;28;20445;-87
2020/12/16 11:10:18;;;;;;;16.90;9.37;;;16.00;45.20;;;;;;5084091;28;20469;-87
2020/12/16 11:12:45;;;;;;;10.60;7.17;;;16.10;44.60;;;;;;5069134;28;20435;-86
2020/12/16 11:15:12;;;;;;;11.07;7.60;;;16.20;44.30;;;;;;5058420;28;20631;-86
2020/12/16 11:17:39;;;;;;;12.03;7.70;;;16.40;44.30;;;;;;5072753;28;20461;-86
2020/12/16 11:20:06;;;;;;;12.90;8.97;;;16.50;44.20;;;;;;5076002;28;20451;-86
2020/12/16 11:22:37;;;;;;;10.67;6.03;;;16.50;43.70;;;;;;5075094;28;20438;-86
2020/12/16 11:25:03;;;;;;;10.20;7.10;;;16.10;45.10;;;;;;5077125;28;20458;-87
2020/12/16 11:27:30;;;;;;;11.53;7.53;;;16.30;44.70;;;;;;5076460;28;20455;-87
2020/12/16 11:29:56;;;;;;;14.70;8.40;;;16.50;44.50;;;;;;5067880;28;20476;-87
2020/12/16 11:32:24;;;;;;;10.17;6.90;;;16.70;44.10;;;;;;5068054;28;20452;-87
2020/12/16 11:34:50;;;;;;;8.70;6.03;;;16.70;44.00;;;;;;5058383;28;20510;-86
2020/12/16 11:37:17;;;;;;;12.80;9.10;;;16.80;44.00;;;;;;5066176;28;20460;-86
2020/12/16 11:39:44;;;;;;;17.97;10.77;;;16.60;44.30;;;;;;5055515;28;20537;-86
2020/12/16 11:42:10;;;;;;;12.60;8.60;;;16.60;44.10;;;;;;5055056;28;20443;-86
2020/12/16 11:44:36;;;;;;;22.10;9.80;;;16.40;44.60;;;;;;5055185;28;20858;-84
2020/12/16 11:47:06;;;;;;;8.50;4.83;;;16.40;44.60;;;;;;5054481;28;21017;-84
2020/12/16 11:49:33;;;;;;;11.53;7.97;;;16.80;44.00;;;;;;5054352;28;20792;-84
2020/12/16 11:51:59;;;;;;;12.73;7.50;;;16.80;44.10;;;;;;5054857;28;20479;-84
2020/12/16 11:54:26;;;;;;;8.53;5.73;;;16.60;44.10;;;;;;5053960;28;20484;-84
2020/12/16 11:56:53;;;;;;;8.37;5.30;;;16.70;44.00;;;;;;5054026;28;20535;-84
2020/12/16 11:59:19;;;;;;;17.80;6.30;;;16.50;43.70;;;;;;5054602;28;20451;-84
2020/12/16 12:01:45;;;;;;;11.83;7.00;;;16.40;44.50;;;;;;5054434;28;20451;-85
2020/12/16 12:04:12;;;;;;;9.33;6.37;;;16.50;44.10;;;;;;5053979;28;21012;-85
2020/12/16 12:06:39;;;;;;;32.53;6.60;;;16.70;44.00;;;;;;5054200;28;20475;-85
2020/12/16 12:09:07;;;;;;;10.30;6.53;;;16.60;43.60;;;;;;5053548;28;20462;-85
2020/12/16 12:11:34;;;;;;;8.80;6.40;;;16.60;43.40;;;;;;5053692;28;20451;-84
2020/12/16 12:14:00;;;;;;;13.33;6.20;;;16.90;43.40;;;;;;5053686;28;20487;-84
2020/12/16 12:16:27;;;;;;;12.90;8.27;;;16.80;43.30;;;;;;5054130;28;20460;-85
2020/12/16 12:18:53;;;;;;;11.17;7.73;;;16.70;44.10;;;;;;5054195;28;20539;-85
2020/12/16 12:21:19;;;;;;;17.40;9.23;;;16.20;45.40;;;;;;5053824;28;20550;-85
2020/12/16 12:23:47;;;;;;;15.60;9.87;;;16.00;46.30;;;;;;5053616;28;20450;-85
2020/12/16 12:26:13;;;;;;;14.33;9.70;;;15.60;47.20;;;;;;5053471;28;20518;-85
2020/12/16 12:28:40;;;;;;;13.40;9.13;;;15.40;47.80;;;;;;5053659;28;20474;-85
2020/12/16 12:31:06;;;;;;;12.70;9.30;;;15.20;47.90;;;;;;5054558;28;20550;-84
2020/12/16 12:33:33;;;;;;;24.63;14.70;;;15.50;47.60;;;;;;5052947;28;21035;-85
2020/12/16 12:36:00;;;;;;;14.80;10.40;;;15.30;48.00;;;;;;5054085;28;20894;-85
2020/12/16 12:38:26;;;;;;;13.90;9.13;;;15.40;47.90;;;;;;5053284;28;20448;-85
2020/12/16 12:40:54;;;;;;;13.87;9.23;;;15.60;47.40;;;;;;5054292;28;20466;-85
2020/12/16 12:43:20;;;;;;;12.03;8.70;;;15.80;47.20;;;;;;5053113;28;20930;-85
2020/12/16 12:45:47;;;;;;;12.23;9.30;;;16.00;46.70;;;;;;5053323;28;20450;-85